Time;durP1;ratioP1;P1;durP2;ratioP2;P2;SDS_P1;SDS_P2;PMS_P1;PMS_P2;Temp;Humidity;BMP_temperature;BMP_pressure;BME280_temperature;BME280_humidity;BME280_pressure;Samples;Min_cycle;Max_cycle;Signal;HPM_P1;HPM_P2
2021/03/27 00:00:41;;;;;;;6.17;5.23;;;;;;;;;;5011136;28;20408;-53
2021/03/27 00:03:13;;;;;;;8.43;5.73;;;;;;;;;;5011135;28;20403;-53
2021/03/27 00:05:58;;;;;;;7.33;6.00;;;;;;;;;;5010430;28;20414;-52
2021/03/27 00:08:27;;;;;;;11.33;7.30;;;;;;;;;;4991329;28;20819;-53
2021/03/27 00:10:57;;;;;;;10.87;8.00;;;;;;;;;;4991457;28;20423;-53
2021/03/27 00:13:33;;;;;;;14.17;7.80;;;;;;;;;;4992309;28;20797;-52
2021/03/27 00:16:05;;;;;;;11.40;7.87;;;;;;;;;;5011042;28;20487;-53
2021/03/27 00:18:45;;;;;;;11.80;8.47;;;;;;;;;;5010680;28;20457;-53
2021/03/27 00:21:30;;;;;;;14.90;8.03;;;;;;;;;;5010942;28;20765;-52
2021/03/27 00:23:58;;;;;;;13.40;7.87;;;;;;;;;;5011001;28;20406;-53
2021/03/27 00:26:28;;;;;;;8.93;8.13;;;;;;;;;;5010949;28;20395;-52
2021/03/27 00:29:09;;;;;;;12.53;9.83;;;;;;;;;;5009401;28;20403;-52
2021/03/27 00:31:46;;;;;;;10.27;8.63;;;;;;;;;;5010805;28;20431;-53
2021/03/27 00:34:16;;;;;;;10.87;9.43;;;;;;;;;;5010932;28;20399;-52
2021/03/27 00:36:44;;;;;;;14.93;10.83;;;;;;;;;;5009743;28;20438;-52
2021/03/27 00:39:21;;;;;;;12.03;8.70;;;;;;;;;;5011530;28;20528;-52
2021/03/27 00:41:50;;;;;;;12.57;8.60;;;;;;;;;;5014560;28;20438;-51
2021/03/27 00:44:17;;;;;;;10.60;8.67;;;;;;;;;;5015355;28;20406;-51
2021/03/27 00:46:44;;;;;;;17.77;8.53;;;;;;;;;;5014598;28;20411;-49
2021/03/27 00:49:13;;;;;;;9.40;8.30;;;;;;;;;;5014337;28;20914;-52
2021/03/27 00:51:42;;;;;;;12.63;7.90;;;;;;;;;;5014494;28;20496;-50
2021/03/27 00:54:10;;;;;;;9.13;7.70;;;;;;;;;;5014554;28;20442;-50
2021/03/27 00:56:50;;;;;;;12.90;8.10;;;;;;;;;;5014386;28;20411;-53
2021/03/27 00:59:30;;;;;;;11.50;8.93;;;;;;;;;;5014304;28;20453;-53
2021/03/27 01:01:57;;;;;;;14.33;10.50;;;;;;;;;;5014457;28;20426;-50
2021/03/27 01:04:26;;;;;;;12.67;9.37;;;;;;;;;;5014471;28;20499;-53
2021/03/27 01:06:54;;;;;;;10.97;8.00;;;;;;;;;;5013284;28;20533;-51
2021/03/27 01:09:24;;;;;;;10.07;7.07;;;;;;;;;;5014105;28;20416;-50
2021/03/27 01:11:55;;;;;;;7.77;6.90;;;;;;;;;;5014295;28;20433;-52
2021/03/27 01:14:24;;;;;;;10.73;7.43;;;;;;;;;;5014481;28;20466;-50
2021/03/27 01:16:51;;;;;;;5.87;5.33;;;;;;;;;;5014136;28;20911;-53
2021/03/27 01:19:20;;;;;;;6.93;6.00;;;;;;;;;;5013692;28;20456;-53
2021/03/27 01:21:47;;;;;;;5.70;5.20;;;;;;;;;;5014105;28;20443;-54
2021/03/27 01:24:14;;;;;;;6.57;5.97;;;;;;;;;;5014030;28;20401;-50
2021/03/27 01:27:02;;;;;;;5.63;5.03;;;;;;;;;;5013998;28;20253;-49
2021/03/27 01:29:54;;;;;;;8.43;5.05;;;;;;;;;;5013691;28;20413;-51
2021/03/27 01:32:23;;;;;;;6.43;5.33;;;;;;;;;;4991130;28;20580;-50
2021/03/27 01:34:49;;;;;;;7.43;6.63;;;;;;;;;;5013820;28;20422;-50
2021/03/27 01:37:18;;;;;;;9.17;8.00;;;;;;;;;;5013014;28;20408;-51
2021/03/27 01:40:03;;;;;;;14.80;9.53;;;;;;;;;;5012226;28;20870;-53
2021/03/27 01:42:36;;;;;;;15.68;11.93;;;;;;;;;;5013649;28;20456;-50
2021/03/27 01:45:17;;;;;;;18.53;13.73;;;;;;;;;;5013724;28;20185;-53
2021/03/27 01:47:47;;;;;;;18.85;13.68;;;;;;;;;;5013635;28;20415;-50
2021/03/27 01:50:15;;;;;;;19.93;14.47;;;;;;;;;;5013138;28;20176;-50
2021/03/27 01:52:52;;;;;;;21.60;13.57;;;;;;;;;;5013687;28;20416;-50
2021/03/27 01:55:37;;;;;;;18.70;13.95;;;;;;;;;;5013775;28;20512;-50
2021/03/27 01:58:15;;;;;;;17.30;12.38;;;;;;;;;;5013675;28;20224;-50
2021/03/27 02:00:52;;;;;;;17.67;13.40;;;;;;;;;;5012755;28;20188;-55
2021/03/27 02:03:36;;;;;;;18.13;12.80;;;;;;;;;;5012848;28;20392;-50
2021/03/27 02:06:11;;;;;;;16.40;12.25;;;;;;;;;;5012563;28;20818;-50
2021/03/27 02:08:56;;;;;;;19.90;11.25;;;;;;;;;;5012167;28;20181;-54
2021/03/27 02:11:27;;;;;;;11.90;10.10;;;;;;;;;;5013106;28;20255;-50
2021/03/27 02:14:06;;;;;;;11.15;8.43;;;;;;;;;;5013199;28;20399;-52
2021/03/27 02:16:54;;;;;;;11.97;6.93;;;;;;;;;;5012909;28;20231;-51
2021/03/27 02:19:20;;;;;;;10.75;6.43;;;;;;;;;;5012697;28;20447;-50
2021/03/27 02:21:59;;;;;;;8.90;5.87;;;;;;;;;;5012848;28;20559;-51
2021/03/27 02:24:38;;;;;;;10.05;6.05;;;;;;;;;;5013027;28;20395;-52
2021/03/27 02:27:22;;;;;;;5.78;5.20;;;;;;;;;;5012763;28;20537;-53
2021/03/27 02:30:07;;;;;;;6.97;5.57;;;;;;;;;;5012845;28;20172;-51
2021/03/27 02:32:52;;;;;;;5.97;5.00;;;;;;;;;;5012631;28;20219;-49
2021/03/27 02:35:28;;;;;;;5.50;4.90;;;;;;;;;;5012739;28;20168;-53
2021/03/27 02:38:14;;;;;;;8.00;4.57;;;;;;;;;;5012375;28;20199;-50
2021/03/27 02:41:02;;;;;;;6.32;4.40;;;;;;;;;;5012229;28;20204;-53
2021/03/27 02:43:34;;;;;;;8.10;4.63;;;;;;;;;;5012490;28;20264;-53
2021/03/27 02:46:00;;;;;;;7.65;4.32;;;;;;;;;;5012537;28;20175;-50
2021/03/27 02:48:49;;;;;;;7.67;4.63;;;;;;;;;;5012333;28;20550;-51
2021/03/27 02:51:27;;;;;;;4.82;4.20;;;;;;;;;;5012429;28;20478;-51
2021/03/27 02:54:04;;;;;;;6.78;4.25;;;;;;;;;;5012328;28;20171;-53
2021/03/27 02:56:34;;;;;;;4.88;4.38;;;;;;;;;;5012317;28;20174;-53
2021/03/27 02:59:22;;;;;;;8.98;3.95;;;;;;;;;;5011895;28;20696;-50
2021/03/27 03:02:07;;;;;;;6.97;4.60;;;;;;;;;;5011398;28;20188;-53
2021/03/27 03:04:41;;;;;;;7.90;3.80;;;;;;;;;;5011978;28;20171;-50
2021/03/27 03:07:29;;;;;;;3.72;3.42;;;;;;;;;;5012145;28;20258;-53
2021/03/27 03:10:00;;;;;;;7.15;3.90;;;;;;;;;;5011819;28;20194;-50
2021/03/27 03:12:38;;;;;;;5.18;3.15;;;;;;;;;;5012016;28;20196;-53
2021/03/27 03:15:19;;;;;;;3.83;3.47;;;;;;;;;;5011842;28;20184;-53
2021/03/27 03:17:47;;;;;;;6.07;3.65;;;;;;;;;;5011679;28;20687;-50
2021/03/27 03:20:19;;;;;;;6.63;3.67;;;;;;;;;;5011778;28;20176;-50
2021/03/27 03:22:57;;;;;;;5.22;3.30;;;;;;;;;;5011825;28;20242;-50
2021/03/27 03:25:26;;;;;;;7.95;4.43;;;;;;;;;;5011663;28;20264;-50
2021/03/27 03:27:55;;;;;;;7.70;3.60;;;;;;;;;;5011647;28;20535;-50
2021/03/27 03:30:25;;;;;;;8.02;3.85;;;;;;;;;;5011602;28;20668;-53
2021/03/27 03:33:03;;;;;;;6.72;3.53;;;;;;;;;;5011716;28;20196;-51
2021/03/27 03:35:43;;;;;;;8.95;4.32;;;;;;;;;;5011591;28;20168;-53
2021/03/27 03:38:12;;;;;;;7.10;3.65;;;;;;;;;;5010274;28;20199;-53
2021/03/27 03:40:56;;;;;;;9.73;3.72;;;;;;;;;;5011457;28;20176;-50
2021/03/27 03:43:28;;;;;;;8.68;4.30;;;;;;;;;;5011500;28;20230;-50
2021/03/27 03:46:09;;;;;;;9.27;4.55;;;;;;;;;;5011525;28;20164;-50
2021/03/27 03:48:44;;;;;;;6.72;4.25;;;;;;;;;;5010401;28;20267;-55
2021/03/27 03:51:17;;;;;;;8.10;4.38;;;;;;;;;;5011466;28;20593;-50
2021/03/27 03:54:02;;;;;;;8.95;4.40;;;;;;;;;;5011638;28;20170;-52
2021/03/27 03:56:35;;;;;;;7.85;4.38;;;;;;;;;;5011495;28;20172;-54
2021/03/27 03:59:13;;;;;;;7.82;4.30;;;;;;;;;;5011372;28;20204;-49
2021/03/27 04:02:11;;;;;;;8.25;4.55;;;;;;;;;;5011535;28;20223;-49
2021/03/27 04:04:48;;;;;;;5.85;4.13;;;;;;;;;;4978500;28;20223;-50
2021/03/27 04:07:34;;;;;;;7.45;4.43;;;;;;;;;;5011208;28;20179;-55
2021/03/27 04:10:03;;;;;;;6.00;4.38;;;;;;;;;;4970655;28;20208;-53
2021/03/27 04:12:34;;;;;;;9.32;4.72;;;;;;;;;;4991428;28;20251;-50
2021/03/27 04:15:09;;;;;;;17.88;5.05;;;;;;;;;;4991495;28;20641;-54
2021/03/27 04:17:47;;;;;;;7.88;4.53;;;;;;;;;;4991127;28;20215;-49
2021/03/27 04:20:17;;;;;;;12.00;5.82;;;;;;;;;;4991471;28;20165;-50
2021/03/27 04:22:49;;;;;;;11.52;5.80;;;;;;;;;;4991389;28;20251;-51
2021/03/27 04:25:24;;;;;;;9.80;5.38;;;;;;;;;;4991481;28;20165;-50
2021/03/27 04:28:11;;;;;;;14.05;5.30;;;;;;;;;;4991093;28;20595;-50
2021/03/27 04:30:58;;;;;;;11.82;6.53;;;;;;;;;;4991428;28;20165;-49
2021/03/27 04:33:27;;;;;;;8.90;5.70;;;;;;;;;;4991166;28;20590;-50
2021/03/27 04:36:11;;;;;;;13.93;6.18;;;;;;;;;;4991359;28;20169;-51
2021/03/27 04:38:37;;;;;;;9.38;6.63;;;;;;;;;;4990858;28;20660;-50
2021/03/27 04:41:08;;;;;;;7.87;6.27;;;;;;;;;;5006472;28;20209;-51
2021/03/27 04:43:36;;;;;;;10.75;5.50;;;;;;;;;;5010658;28;20399;-50
2021/03/27 04:46:08;;;;;;;13.18;5.68;;;;;;;;;;5010811;28;20175;-50
2021/03/27 04:48:42;;;;;;;9.65;5.35;;;;;;;;;;5009775;28;20578;-50
2021/03/27 04:51:28;;;;;;;10.52;5.25;;;;;;;;;;5010927;28;20195;-50
2021/03/27 04:54:00;;;;;;;18.13;6.10;;;;;;;;;;5010709;28;20164;-50
2021/03/27 04:56:44;;;;;;;9.48;5.63;;;;;;;;;;5010629;28;20648;-49
2021/03/27 04:59:16;;;;;;;17.42;6.32;;;;;;;;;;5010191;28;20742;-50
2021/03/27 05:01:59;;;;;;;11.27;5.47;;;;;;;;;;5010622;28;20191;-51
2021/03/27 05:04:26;;;;;;;8.85;5.95;;;;;;;;;;5010587;28;20203;-53
2021/03/27 05:07:01;;;;;;;10.60;5.10;;;;;;;;;;5010613;28;20168;-53
2021/03/27 05:09:36;;;;;;;11.82;5.50;;;;;;;;;;5009060;28;20183;-50
2021/03/27 05:12:12;;;;;;;8.85;5.00;;;;;;;;;;5010478;28;20199;-50
2021/03/27 05:14:56;;;;;;;19.20;5.70;;;;;;;;;;5010470;28;20294;-50
2021/03/27 05:17:26;;;;;;;9.45;6.38;;;;;;;;;;5010347;28;20250;-53
2021/03/27 05:20:11;;;;;;;9.50;5.45;;;;;;;;;;5010308;28;20184;-50
2021/03/27 05:22:57;;;;;;;14.60;5.22;;;;;;;;;;5010399;28;20283;-53
2021/03/27 05:25:44;;;;;;;9.68;4.70;;;;;;;;;;4949348;28;20201;-52
2021/03/27 05:28:16;;;;;;;9.82;5.20;;;;;;;;;;5013011;28;20177;-50
2021/03/27 05:30:48;;;;;;;13.38;5.15;;;;;;;;;;5013917;28;20176;-50
2021/03/27 05:33:30;;;;;;;10.18;4.13;;;;;;;;;;5013953;28;20176;-50
2021/03/27 05:35:59;;;;;;;5.63;4.20;;;;;;;;;;5013856;28;20178;-54
2021/03/27 05:38:25;;;;;;;9.68;4.55;;;;;;;;;;5012471;28;20207;-49
2021/03/27 05:41:21;;;;;;;8.50;4.70;;;;;;;;;;5013590;28;20212;-50
2021/03/27 05:43:47;;;;;;;12.07;4.70;;;;;;;;;;5013739;28;20168;-49
2021/03/27 05:46:28;;;;;;;11.20;4.80;;;;;;;;;;5013034;28;20234;-49
2021/03/27 05:49:09;;;;;;;16.75;4.32;;;;;;;;;;5013375;28;20399;-54
2021/03/27 05:51:54;;;;;;;16.65;4.75;;;;;;;;;;5012734;28;20204;-49
2021/03/27 05:54:38;;;;;;;11.20;4.00;;;;;;;;;;5013649;28;20192;-50
2021/03/27 05:57:23;;;;;;;10.88;4.00;;;;;;;;;;5013471;28;20203;-54
2021/03/27 06:00:01;;;;;;;5.90;3.95;;;;;;;;;;5013425;28;20199;-50
2021/03/27 06:02:46;;;;;;;6.85;3.60;;;;;;;;;;5013338;28;20191;-50
2021/03/27 06:05:24;;;;;;;8.50;3.70;;;;;;;;;;5013716;28;20179;-50
2021/03/27 06:08:08;;;;;;;8.10;3.67;;;;;;;;;;5013233;28;20672;-50
2021/03/27 06:10:52;;;;;;;12.07;3.70;;;;;;;;;;5012511;28;20214;-50
2021/03/27 06:13:33;;;;;;;17.27;4.18;;;;;;;;;;5013466;28;20176;-52
2021/03/27 06:16:14;;;;;;;7.85;3.67;;;;;;;;;;5013339;28;20168;-53
2021/03/27 06:18:55;;;;;;;11.75;4.05;;;;;;;;;;5012789;28;20208;-49
2021/03/27 06:21:39;;;;;;;6.28;3.38;;;;;;;;;;5012901;28;20211;-53
2021/03/27 06:24:10;;;;;;;7.85;3.58;;;;;;;;;;5012790;28;20172;-50
2021/03/27 06:26:43;;;;;;;5.40;3.28;;;;;;;;;;5013046;28;20180;-49
2021/03/27 06:29:27;;;;;;;13.57;3.00;;;;;;;;;;5012631;28;20178;-49
2021/03/27 06:32:11;;;;;;;7.55;3.40;;;;;;;;;;5012697;28;20184;-53
2021/03/27 06:34:43;;;;;;;6.50;3.80;;;;;;;;;;5011717;28;21130;-56
2021/03/27 06:37:18;;;;;;;7.70;3.65;;;;;;;;;;5011608;28;20211;-49
2021/03/27 06:39:47;;;;;;;8.20;3.78;;;;;;;;;;5012379;28;20281;-52
2021/03/27 06:42:32;;;;;;;5.03;3.70;;;;;;;;;;5012522;28;20280;-50
2021/03/27 06:44:58;;;;;;;6.80;3.50;;;;;;;;;;5013041;28;20166;-51
2021/03/27 06:47:35;;;;;;;9.50;3.80;;;;;;;;;;5012393;28;20407;-51
2021/03/27 06:50:21;;;;;;;7.75;3.15;;;;;;;;;;5012341;28;20399;-52
2021/03/27 06:52:59;;;;;;;11.00;3.70;;;;;;;;;;5012467;28;20195;-50
2021/03/27 06:55:34;;;;;;;8.27;3.20;;;;;;;;;;5012262;28;20226;-50
2021/03/27 06:58:19;;;;;;;12.68;4.28;;;;;;;;;;5012164;28;20656;-51
2021/03/27 07:00:50;;;;;;;10.87;4.43;;;;;;;;;;5012068;28;20195;-50
2021/03/27 07:03:35;;;;;;;6.10;3.47;;;;;;;;;;5012472;28;20429;-52
2021/03/27 07:06:21;;;;;;;13.40;4.03;;;;;;;;;;5011067;28;20850;-50
2021/03/27 07:08:47;;;;;;;9.27;3.67;;;;;;;;;;5011301;28;20778;-50
2021/03/27 07:11:13;;;;;;;6.27;3.80;;;;;;;;;;5011124;28;20423;-51
2021/03/27 07:13:58;;;;;;;12.23;3.90;;;;;;;;;;5011374;28;20409;-51
2021/03/27 07:16:42;;;;;;;11.60;3.43;;;;;;;;;;5011482;28;20419;-50
2021/03/27 07:19:17;;;;;;;12.13;3.87;;;;;;;;;;5011649;28;20864;-51
2021/03/27 07:21:47;;;;;;;10.83;4.27;;;;;;;;;;5011679;28;20447;-53
2021/03/27 07:24:21;;;;;;;13.50;4.90;;;;;;;;;;5011508;28;20448;-51
2021/03/27 07:27:06;;;;;;;9.68;4.70;;;;;;;;;;5011670;28;20167;-52
2021/03/27 07:29:38;;;;;;;17.50;4.30;;;;;;;;;;5011510;28;20204;-49
2021/03/27 07:32:13;;;;;;;6.85;3.63;;;;;;;;;;5011521;28;20412;-51
2021/03/27 07:34:53;;;;;;;9.88;4.15;;;;;;;;;;5010779;28;20176;-51
2021/03/27 07:37:37;;;;;;;5.13;3.05;;;;;;;;;;5011675;28;20269;-52
2021/03/27 07:40:15;;;;;;;4.32;3.03;;;;;;;;;;5011514;28;20190;-51
2021/03/27 07:42:41;;;;;;;5.65;3.10;;;;;;;;;;5011412;28;20276;-51
2021/03/27 07:45:07;;;;;;;10.13;2.57;;;;;;;;;;5011554;28;20644;-51
2021/03/27 07:47:36;;;;;;;2.08;1.35;;;;;;;;;;5010986;28;20493;-51
2021/03/27 07:50:11;;;;;;;2.00;1.42;;;;;;;;;;5011403;28;20171;-50
2021/03/27 07:52:37;;;;;;;3.65;1.45;;;;;;;;;;5011317;28;20194;-51
2021/03/27 07:55:08;;;;;;;6.73;2.20;;;;;;;;;;5011216;28;20669;-51
2021/03/27 07:57:53;;;;;;;2.42;2.10;;;;;;;;;;5011046;28;20413;-50
2021/03/27 08:00:19;;;;;;;4.85;2.40;;;;;;;;;;5011174;28;20632;-51
2021/03/27 08:05:51;;;;;;;9.95;2.80;;;;;;;;;;5009482;28;20428;-50
2021/03/27 08:08:27;;;;;;;5.55;3.05;;;;;;;;;;5010123;28;20655;-51
2021/03/27 08:11:14;;;;;;;5.10;2.00;;;;;;;;;;5011099;28;20178;-51
2021/03/27 08:13:58;;;;;;;2.97;2.25;;;;;;;;;;5011374;28;20275;-50
2021/03/27 08:16:36;;;;;;;2.58;2.15;;;;;;;;;;5011318;28;20703;-50
2021/03/27 08:19:19;;;;;;;8.80;2.17;;;;;;;;;;5009747;28;20297;-50
2021/03/27 08:22:07;;;;;;;5.15;1.98;;;;;;;;;;5010105;28;20199;-52
2021/03/27 08:24:52;;;;;;;5.47;2.40;;;;;;;;;;5011364;28;20203;-50
2021/03/27 08:27:32;;;;;;;6.65;2.90;;;;;;;;;;5010973;28;20199;-52
2021/03/27 08:30:17;;;;;;;6.20;2.63;;;;;;;;;;5010876;28;20197;-51
2021/03/27 08:33:01;;;;;;;3.22;2.53;;;;;;;;;;5010910;28;20195;-50
2021/03/27 08:35:46;;;;;;;7.35;2.60;;;;;;;;;;5010871;28;20168;-50
2021/03/27 08:38:15;;;;;;;5.22;2.55;;;;;;;;;;5010534;28;20272;-52
2021/03/27 08:40:54;;;;;;;6.60;2.53;;;;;;;;;;5008469;28;20179;-51
2021/03/27 08:43:25;;;;;;;5.00;2.55;;;;;;;;;;4991343;28;20665;-50
2021/03/27 08:46:10;;;;;;;7.63;3.03;;;;;;;;;;4991142;28;20266;-50
2021/03/27 08:48:52;;;;;;;8.70;3.35;;;;;;;;;;4990981;28;20305;-53
2021/03/27 08:51:18;;;;;;;7.38;3.20;;;;;;;;;;4991054;28;20223;-50
2021/03/27 08:53:57;;;;;;;6.77;3.43;;;;;;;;;;4991172;28;20657;-51
2021/03/27 08:56:42;;;;;;;4.30;3.50;;;;;;;;;;4991188;28;20900;-50
2021/03/27 08:59:11;;;;;;;4.53;3.30;;;;;;;;;;4990759;28;20231;-50
2021/03/27 09:01:36;;;;;;;5.20;2.40;;;;;;;;;;4994001;28;20193;-52
2021/03/27 09:04:09;;;;;;;5.20;3.30;;;;;;;;;;4994914;28;20542;-52
2021/03/27 09:06:40;;;;;;;3.80;3.40;;;;;;;;;;4994707;28;20456;-52
2021/03/27 09:09:15;;;;;;;3.47;2.70;;;;;;;;;;5014118;28;20172;-51
2021/03/27 09:12:04;;;;;;;7.50;3.10;;;;;;;;;;5014348;28;20191;-51
2021/03/27 09:14:41;;;;;;;4.68;3.00;;;;;;;;;;5014328;28;20532;-51
2021/03/27 09:17:29;;;;;;;2.80;2.60;;;;;;;;;;5014128;28;20208;-51
2021/03/27 09:20:13;;;;;;;5.90;2.73;;;;;;;;;;5014015;28;20866;-51
2021/03/27 09:22:38;;;;;;;4.90;3.20;;;;;;;;;;5013970;28;20501;-52
2021/03/27 09:25:13;;;;;;;3.57;3.23;;;;;;;;;;5014166;28;20954;-52
2021/03/27 09:27:52;;;;;;;4.77;3.30;;;;;;;;;;5013767;28;21543;-51
2021/03/27 09:30:24;;;;;;;4.17;3.50;;;;;;;;;;5013934;28;20532;-50
2021/03/27 09:32:50;;;;;;;3.73;3.00;;;;;;;;;;5013868;28;20432;-50
2021/03/27 09:35:35;;;;;;;4.77;3.40;;;;;;;;;;5013949;28;20403;-51
2021/03/27 09:38:19;;;;;;;3.43;3.10;;;;;;;;;;5012779;28;20469;-51
2021/03/27 09:40:44;;;;;;;9.13;2.70;;;;;;;;;;5013798;28;20407;-50
2021/03/27 09:43:26;;;;;;;5.33;3.10;;;;;;;;;;5013861;28;20409;-51
2021/03/27 09:46:01;;;;;;;4.27;2.73;;;;;;;;;;5013961;28;20399;-52
2021/03/27 09:48:44;;;;;;;6.27;2.80;;;;;;;;;;5013790;28;20945;-51
2021/03/27 09:51:19;;;;;;;5.37;2.63;;;;;;;;;;5013608;28;20401;-51
2021/03/27 09:54:00;;;;;;;10.67;2.50;;;;;;;;;;5013686;28;20498;-51
2021/03/27 09:56:33;;;;;;;4.27;2.67;;;;;;;;;;5013538;28;20405;-50
2021/03/27 09:59:11;;;;;;;8.17;2.70;;;;;;;;;;5013208;28;20458;-50
2021/03/27 10:02:00;;;;;;;7.77;2.90;;;;;;;;;;5013299;28;20414;-50
2021/03/27 10:04:29;;;;;;;5.53;2.83;;;;;;;;;;5013323;28;21098;-51
2021/03/27 10:07:14;;;;;;;7.20;1.83;;;;;;;;;;5012402;28;20911;-50
2021/03/27 10:09:40;;;;;;;6.33;1.37;;;;;;;;;;5012846;28;20772;-51
2021/03/27 10:12:06;;;;;;;1.50;1.40;;;;;;;;;;5012922;28;20430;-50
2021/03/27 10:14:35;;;;;;;2.27;1.10;;;;;;;;;;5013325;28;20396;-50
2021/03/27 10:17:06;;;;;;;1.50;1.40;;;;;;;;;;5013155;28;20415;-50
2021/03/27 10:19:41;;;;;;;4.25;1.80;;;;;;;;;;5011386;28;20196;-50
2021/03/27 10:22:17;;;;;;;2.35;1.80;;;;;;;;;;5012833;28;20187;-50
2021/03/27 10:24:48;;;;;;;3.47;1.60;;;;;;;;;;5012961;28;20584;-51
2021/03/27 10:27:25;;;;;;;1.95;1.80;;;;;;;;;;5012827;28;20708;-50
2021/03/27 10:29:57;;;;;;;2.72;2.47;;;;;;;;;;5012745;28;20164;-51
2021/03/27 10:32:23;;;;;;;6.10;2.70;;;;;;;;;;5012922;28;20206;-50
2021/03/27 10:34:54;;;;;;;2.47;2.27;;;;;;;;;;5012705;28;20255;-51
2021/03/27 10:37:31;;;;;;;4.22;2.33;;;;;;;;;;5010766;28;20458;-52
2021/03/27 10:40:20;;;;;;;2.60;2.40;;;;;;;;;;5012504;28;20687;-50
2021/03/27 10:43:04;;;;;;;3.88;2.78;;;;;;;;;;5012304;28;20702;-51
2021/03/27 10:45:35;;;;;;;5.13;2.50;;;;;;;;;;5012680;28;20536;-50
2021/03/27 10:48:03;;;;;;;3.70;3.40;;;;;;;;;;5012212;28;20168;-50
2021/03/27 10:50:36;;;;;;;6.40;3.78;;;;;;;;;;5012297;28;20552;-50
2021/03/27 10:53:11;;;;;;;6.05;3.70;;;;;;;;;;5012303;28;20242;-49
2021/03/27 10:55:40;;;;;;;6.97;4.38;;;;;;;;;;5012453;28;20209;-51
2021/03/27 10:58:15;;;;;;;7.22;3.95;;;;;;;;;;5012003;28;20254;-51
2021/03/27 11:01:01;;;;;;;8.15;3.55;;;;;;;;;;5011431;28;20190;-53
2021/03/27 11:03:40;;;;;;;5.40;3.50;;;;;;;;;;5011097;28;20179;-52
2021/03/27 11:06:12;;;;;;;6.05;3.00;;;;;;;;;;5012259;28;20183;-50
2021/03/27 11:08:56;;;;;;;5.88;2.65;;;;;;;;;;5010916;28;20195;-51
2021/03/27 11:11:22;;;;;;;4.57;2.70;;;;;;;;;;5012064;28;20214;-50
2021/03/27 11:14:07;;;;;;;2.53;2.33;;;;;;;;;;5012095;28;20485;-50
2021/03/27 11:16:51;;;;;;;5.50;2.90;;;;;;;;;;5012098;28;20413;-50
2021/03/27 11:19:17;;;;;;;5.00;3.20;;;;;;;;;;5011570;28;20235;-52
2021/03/27 11:22:02;;;;;;;6.43;4.20;;;;;;;;;;5011879;28;20189;-50
2021/03/27 11:24:28;;;;;;;3.27;2.97;;;;;;;;;;5011275;28;20404;-52
2021/03/27 11:27:01;;;;;;;5.83;3.03;;;;;;;;;;5011783;28;20928;-51
2021/03/27 11:29:44;;;;;;;4.90;2.70;;;;;;;;;;5011691;28;20426;-51
2021/03/27 11:32:19;;;;;;;3.20;2.63;;;;;;;;;;5011644;28;20415;-51
2021/03/27 11:34:51;;;;;;;6.17;2.97;;;;;;;;;;5011809;28;20873;-51
2021/03/27 11:37:27;;;;;;;10.00;2.73;;;;;;;;;;5011602;28;20830;-51
2021/03/27 11:40:03;;;;;;;12.67;3.00;;;;;;;;;;5010698;28;20462;-51
2021/03/27 11:42:37;;;;;;;9.70;3.33;;;;;;;;;;5011302;28;20409;-52
2021/03/27 11:45:09;;;;;;;4.63;2.80;;;;;;;;;;5011713;28;20427;-51
2021/03/27 11:47:52;;;;;;;8.47;3.47;;;;;;;;;;5011395;28;20398;-52
2021/03/27 11:50:32;;;;;;;11.03;4.10;;;;;;;;;;5011574;28;20912;-54
2021/03/27 11:53:09;;;;;;;8.80;3.63;;;;;;;;;;5011404;28;20919;-51
2021/03/27 11:55:38;;;;;;;6.00;3.23;;;;;;;;;;5011421;28;20400;-51
2021/03/27 11:58:04;;;;;;;7.87;3.57;;;;;;;;;;5010988;28;20844;-50
2021/03/27 12:00:47;;;;;;;6.17;4.20;;;;;;;;;;5011309;28;20442;-51
2021/03/27 12:03:16;;;;;;;5.20;2.93;;;;;;;;;;5010973;28;20419;-53
2021/03/27 12:05:53;;;;;;;7.47;3.00;;;;;;;;;;5011194;28;20941;-51
2021/03/27 12:08:23;;;;;;;6.30;3.30;;;;;;;;;;5009974;28;20406;-51
2021/03/27 12:10:58;;;;;;;6.60;3.20;;;;;;;;;;5010731;28;20407;-51
2021/03/27 12:13:27;;;;;;;6.93;3.40;;;;;;;;;;5011173;28;20820;-53
2021/03/27 12:15:57;;;;;;;7.97;3.20;;;;;;;;;;5011136;28;20434;-51
2021/03/27 12:18:35;;;;;;;9.83;3.20;;;;;;;;;;5010657;28;20878;-52
2021/03/27 12:21:12;;;;;;;9.87;3.13;;;;;;;;;;5009976;28;20458;-52
2021/03/27 12:23:41;;;;;;;7.73;3.33;;;;;;;;;;5011004;28;20402;-50
2021/03/27 12:26:10;;;;;;;3.43;2.10;;;;;;;;;;5011084;28;20916;-51
2021/03/27 12:28:40;;;;;;;6.53;2.90;;;;;;;;;;5010650;28;20433;-53
2021/03/27 12:31:06;;;;;;;3.90;2.77;;;;;;;;;;5010826;28;20855;-51
2021/03/27 12:33:32;;;;;;;3.43;2.47;;;;;;;;;;5010896;28;20403;-51
2021/03/27 12:36:04;;;;;;;6.10;3.00;;;;;;;;;;5014851;28;20481;-51
2021/03/27 12:38:30;;;;;;;4.50;2.50;;;;;;;;;;5014480;28;20806;-51
2021/03/27 12:40:59;;;;;;;4.13;2.20;;;;;;;;;;5014611;28;20405;-52
2021/03/27 12:43:27;;;;;;;4.00;2.47;;;;;;;;;;5014983;28;20395;-51
2021/03/27 12:46:07;;;;;;;5.27;2.70;;;;;;;;;;5015319;28;20921;-53
2021/03/27 12:48:32;;;;;;;3.13;2.80;;;;;;;;;;5014295;28;20468;-53
2021/03/27 12:51:17;;;;;;;4.43;2.60;;;;;;;;;;5013650;28;20885;-53
2021/03/27 12:54:02;;;;;;;7.50;2.80;;;;;;;;;;5013380;28;20414;-53
2021/03/27 12:56:28;;;;;;;4.50;3.30;;;;;;;;;;5014603;28;20399;-53
2021/03/27 12:58:57;;;;;;;4.13;2.87;;;;;;;;;;5014361;28;20481;-53
2021/03/27 13:01:43;;;;;;;6.97;3.03;;;;;;;;;;5014512;28;20517;-52
2021/03/27 13:04:27;;;;;;;7.20;3.70;;;;;;;;;;5014482;28;20399;-53
2021/03/27 13:07:09;;;;;;;5.27;3.33;;;;;;;;;;5014515;28;20400;-53
2021/03/27 13:09:53;;;;;;;10.67;2.73;;;;;;;;;;5014236;28;20399;-52
2021/03/27 13:12:38;;;;;;;3.53;2.83;;;;;;;;;;5014209;28;20508;-53
2021/03/27 13:15:13;;;;;;;7.73;3.40;;;;;;;;;;5014473;28;20974;-53
2021/03/27 13:17:47;;;;;;;6.70;3.03;;;;;;;;;;5014188;28;20532;-53
2021/03/27 13:20:18;;;;;;;3.83;2.90;;;;;;;;;;5014419;28;20434;-53
2021/03/27 13:22:59;;;;;;;8.87;2.43;;;;;;;;;;5012935;28;20453;-53
2021/03/27 13:25:34;;;;;;;4.73;2.07;;;;;;;;;;5014373;28;20444;-53
2021/03/27 13:28:06;;;;;;;6.93;2.67;;;;;;;;;;5014043;28;20403;-53
2021/03/27 13:30:38;;;;;;;7.50;2.27;;;;;;;;;;5013915;28;20377;-54
2021/03/27 13:33:10;;;;;;;6.63;2.30;;;;;;;;;;5013796;28;20374;-54
2021/03/27 13:35:56;;;;;;;3.53;1.87;;;;;;;;;;5013929;28;20397;-54
2021/03/27 13:38:25;;;;;;;2.23;1.87;;;;;;;;;;5013464;28;20425;-54
2021/03/27 13:40:52;;;;;;;5.80;2.23;;;;;;;;;;5013595;28;20378;-53
2021/03/27 13:43:18;;;;;;;4.00;2.43;;;;;;;;;;5013758;28;20569;-53
2021/03/27 13:45:56;;;;;;;5.33;1.80;;;;;;;;;;5011779;28;20863;-53
2021/03/27 13:48:28;;;;;;;2.23;1.60;;;;;;;;;;5013421;28;20432;-53
2021/03/27 13:51:03;;;;;;;5.57;1.60;;;;;;;;;;5011923;28;20444;-53
2021/03/27 13:53:32;;;;;;;7.03;2.00;;;;;;;;;;5013609;28;20438;-54
2021/03/27 13:56:13;;;;;;;2.23;1.30;;;;;;;;;;5013364;28;20385;-53
2021/03/27 13:59:01;;;;;;;7.00;2.00;;;;;;;;;;5011488;28;21004;-53
2021/03/27 14:01:46;;;;;;;2.93;1.60;;;;;;;;;;5012741;28;20431;-53
2021/03/27 14:04:23;;;;;;;4.43;1.47;;;;;;;;;;5012922;28;20905;-53
2021/03/27 14:06:51;;;;;;;2.97;1.60;;;;;;;;;;5010029;28;20397;-50
2021/03/27 14:09:38;;;;;;;4.60;1.47;;;;;;;;;;5012855;28;20410;-52
2021/03/27 14:12:25;;;;;;;6.67;1.60;;;;;;;;;;5012247;28;20961;-50
2021/03/27 14:15:03;;;;;;;3.90;1.87;;;;;;;;;;5012291;28;20775;-54
2021/03/27 14:17:41;;;;;;;6.10;1.80;;;;;;;;;;5012492;28;20425;-53
2021/03/27 14:20:30;;;;;;;5.03;1.67;;;;;;;;;;5012175;28;20429;-57
2021/03/27 14:23:15;;;;;;;2.07;1.90;;;;;;;;;;4993444;28;20395;-54
2021/03/27 14:25:41;;;;;;;1.40;1.20;;;;;;;;;;4993506;28;20382;-51
2021/03/27 14:28:36;;;;;;;2.03;1.50;;;;;;;;;;4993180;28;20955;-51
2021/03/27 14:31:08;;;;;;;2.10;1.20;;;;;;;;;;4979828;28;20426;-53
2021/03/27 14:33:37;;;;;;;2.03;1.40;;;;;;;;;;4992974;28;20416;-54
2021/03/27 14:36:15;;;;;;;2.17;1.30;;;;;;;;;;4993212;28;20375;-53
2021/03/27 14:39:00;;;;;;;3.57;1.77;;;;;;;;;;4991553;28;20598;-54
2021/03/27 14:41:33;;;;;;;3.10;1.33;;;;;;;;;;4992855;28;20410;-53
2021/03/27 14:44:02;;;;;;;3.50;1.63;;;;;;;;;;4992909;28;20403;-53
2021/03/27 14:46:31;;;;;;;4.67;1.60;;;;;;;;;;4993051;28;20375;-53
2021/03/27 14:49:10;;;;;;;3.63;1.47;;;;;;;;;;4992690;28;20407;-53
2021/03/27 14:51:39;;;;;;;2.07;1.20;;;;;;;;;;5008984;28;20445;-53
2021/03/27 14:54:20;;;;;;;3.60;1.87;;;;;;;;;;5012231;28;20388;-53
2021/03/27 14:56:49;;;;;;;5.03;1.70;;;;;;;;;;5012190;28;20765;-53
2021/03/27 14:59:25;;;;;;;3.43;1.57;;;;;;;;;;5011077;28;20845;-53
2021/03/27 15:02:08;;;;;;;4.20;1.70;;;;;;;;;;5012075;28;20409;-53
2021/03/27 15:05:00;;;;;;;4.50;2.07;;;;;;;;;;5010961;28;20911;-53
2021/03/27 15:07:28;;;;;;;3.90;1.87;;;;;;;;;;4988974;28;20422;-53
2021/03/27 15:10:12;;;;;;;2.23;1.67;;;;;;;;;;5012119;28;20421;-53
2021/03/27 15:12:40;;;;;;;2.83;1.57;;;;;;;;;;5004773;28;20481;-53
2021/03/27 15:15:23;;;;;;;5.00;1.87;;;;;;;;;;5002970;28;20406;-53
2021/03/27 15:17:54;;;;;;;3.07;1.87;;;;;;;;;;4991792;28;20411;-51
2021/03/27 15:20:24;;;;;;;2.70;1.43;;;;;;;;;;4995271;28;20979;-51
2021/03/27 15:23:08;;;;;;;3.80;1.60;;;;;;;;;;5011865;28;20423;-51
2021/03/27 15:28:54;;;;;;;2.97;1.80;;;;;;;;;;5011336;28;20448;-51
2021/03/27 15:31:43;;;;;;;3.63;1.80;;;;;;;;;;5011780;28;20476;-52
2021/03/27 15:34:12;;;;;;;2.60;1.50;;;;;;;;;;5011611;28;20408;-51
2021/03/27 15:36:51;;;;;;;2.00;1.40;;;;;;;;;;5011676;28;21155;-50